TAF Text Data
IDs:
Format:
Raw Decoded Include METAR

Data at: 1315 UTC 17 Dec 2018

KLVS 171253Z AUTO 18009KT 10SM CLR M01/M10 A3027 RMK AO2 SLP237 T10111100

KLVS 171130Z 1712/1812 18008KT P6SM BKN200
  FM171400 18009KT P6SM BKN110
  FM171900 19011G18KT P6SM BKN100
  FM180000 18009KT P6SM BKN100
  FM180600 35006KT P6SM BKN100